Time;durP1;ratioP1;P1;durP2;ratioP2;P2;SDS_P1;SDS_P2;PMS_P1;PMS_P2;Temp;Humidity;BMP_temperature;BMP_pressure;BME280_temperature;BME280_humidity;BME280_pressure;Samples;Min_cycle;Max_cycle;Signal;HPM_P1;HPM_P2
2021/06/15 00:01:30;;;;;;;3.13;1.88;;;18.20;99.70;;;;;;5035110;28;20032;-76
2021/06/15 00:03:55;;;;;;;6.25;2.17;;;18.10;99.40;;;;;;5036428;28;20044;-76
2021/06/15 00:06:21;;;;;;;4.70;2.38;;;17.80;99.90;;;;;;5036463;28;20461;-76
2021/06/15 00:08:46;;;;;;;5.68;2.30;;;18.00;99.90;;;;;;5035008;28;20484;-76
2021/06/15 00:11:12;;;;;;;4.68;2.40;;;17.90;99.90;;;;;;5036341;28;20075;-76
2021/06/15 00:13:38;;;;;;;8.80;2.38;;;17.80;99.90;;;;;;5036276;28;20021;-76
2021/06/15 00:16:04;;;;;;;6.65;1.98;;;17.60;99.90;;;;;;5036234;28;20018;-76
2021/06/15 00:18:29;;;;;;;4.15;2.17;;;17.60;99.90;;;;;;5034833;28;20112;-76
2021/06/15 00:20:55;;;;;;;6.43;2.60;;;17.70;99.90;;;;;;5034885;28;20481;-76
2021/06/15 00:23:21;;;;;;;5.57;2.45;;;17.90;99.90;;;;;;5036539;28;20029;-76
2021/06/15 00:25:48;;;;;;;4.10;2.00;;;17.80;99.60;;;;;;5034935;28;20021;-76
2021/06/15 00:28:13;;;;;;;4.63;2.20;;;17.80;99.90;;;;;;5035996;28;20021;-76
2021/06/15 00:30:39;;;;;;;3.92;2.20;;;17.90;99.90;;;;;;5035926;28;20090;-76
2021/06/15 00:33:05;;;;;;;5.13;2.35;;;17.80;99.90;;;;;;5035902;28;20091;-76
2021/06/15 00:35:31;;;;;;;7.05;2.70;;;17.60;99.90;;;;;;5034317;28;20111;-76
2021/06/15 00:37:57;;;;;;;6.25;2.45;;;17.80;99.90;;;;;;5034535;28;20029;-76
2021/06/15 00:40:23;;;;;;;5.55;2.22;;;17.90;99.90;;;;;;5034466;28;20461;-76
2021/06/15 00:42:50;;;;;;;5.47;2.38;;;17.70;99.90;;;;;;5034413;28;20366;-76
2021/06/15 00:45:18;;;;;;;2.90;2.13;;;17.60;99.90;;;;;;5034385;28;20075;-76
2021/06/15 00:47:47;;;;;;;4.13;2.05;;;17.50;99.90;;;;;;5034336;28;20053;-77
2021/06/15 00:50:13;;;;;;;5.43;2.70;;;17.40;99.90;;;;;;5035605;28;20052;-76
2021/06/15 00:52:39;;;;;;;4.63;2.17;;;17.30;99.90;;;;;;5035543;28;20026;-76
2021/06/15 00:55:06;;;;;;;4.53;2.03;;;17.60;99.90;;;;;;5034211;28;20120;-76
2021/06/15 00:57:31;;;;;;;4.30;2.08;;;17.60;99.90;;;;;;5035796;28;20033;-76
2021/06/15 00:59:58;;;;;;;5.25;2.17;;;17.70;99.90;;;;;;5035408;28;20075;-76
2021/06/15 01:02:29;;;;;;;5.70;2.47;;;17.60;99.90;;;;;;5035313;28;20370;-76
2021/06/15 01:04:56;;;;;;;4.78;2.13;;;17.60;99.90;;;;;;5034135;28;20026;-76
2021/06/15 01:07:33;;;;;;;4.30;1.98;;;17.60;99.90;;;;;;5035527;28;20049;-76
2021/06/15 01:10:06;;;;;;;5.22;2.40;;;17.60;99.90;;;;;;5034044;28;20044;-76
2021/06/15 01:13:00;;;;;;;7.18;2.20;;;17.60;99.90;;;;;;5033912;28;20036;-77
2021/06/15 01:15:47;;;;;;;3.53;2.13;;;17.30;99.90;;;;;;5035126;28;20071;-76
2021/06/15 01:18:17;;;;;;;4.68;2.30;;;17.40;99.90;;;;;;5033877;28;20374;-76
2021/06/15 01:21:06;;;;;;;6.15;2.33;;;17.50;99.90;;;;;;5033832;28;20485;-76
2021/06/15 01:23:41;;;;;;;4.07;2.40;;;17.40;99.90;;;;;;5035533;28;20072;-75
2021/06/15 01:26:46;;;;;;;8.60;2.22;;;17.30;99.90;;;;;;5033975;28;20060;-76
2021/06/15 01:29:26;;;;;;;5.28;2.13;;;17.40;99.90;;;;;;5033600;28;20080;-76
2021/06/15 01:31:55;;;;;;;7.03;2.30;;;17.60;99.90;;;;;;5035076;28;20445;-76
2021/06/15 01:34:34;;;;;;;7.93;2.78;;;17.40;99.90;;;;;;5034629;28;20025;-76
2021/06/15 01:36:59;;;;;;;4.68;2.22;;;17.30;99.90;;;;;;5034188;28;20042;-76
2021/06/15 01:39:29;;;;;;;4.50;2.53;;;17.20;99.90;;;;;;5034556;28;20109;-76
2021/06/15 01:42:07;;;;;;;5.30;2.50;;;17.30;99.90;;;;;;5034513;28;20052;-76
2021/06/15 01:44:35;;;;;;;4.47;2.08;;;17.40;99.90;;;;;;5034591;28;20049;-76
2021/06/15 01:47:08;;;;;;;4.95;2.45;;;17.10;99.90;;;;;;5033148;28;20017;-76
2021/06/15 01:49:50;;;;;;;4.10;2.25;;;17.00;99.90;;;;;;5034428;28;20021;-76
2021/06/15 01:52:17;;;;;;;3.90;2.10;;;16.80;99.90;;;;;;5034663;28;20490;-76
2021/06/15 01:54:45;;;;;;;7.18;2.20;;;17.10;99.90;;;;;;5034350;28;20018;-76
2021/06/15 01:57:18;;;;;;;3.00;1.90;;;17.10;99.90;;;;;;5034612;28;20026;-76
2021/06/15 01:59:44;;;;;;;8.13;2.13;;;17.10;99.90;;;;;;5034552;28;20030;-76
2021/06/15 02:02:12;;;;;;;5.25;2.15;;;17.00;99.90;;;;;;5034425;28;20026;-76
2021/06/15 02:04:43;;;;;;;3.28;2.28;;;17.20;99.90;;;;;;5034223;28;20029;-76
2021/06/15 02:07:14;;;;;;;6.82;2.45;;;17.00;99.90;;;;;;5032880;28;20025;-76
2021/06/15 02:09:44;;;;;;;3.33;2.25;;;17.20;99.90;;;;;;5034427;28;20018;-76
2021/06/15 02:12:10;;;;;;;5.32;2.25;;;17.30;99.90;;;;;;5034094;28;20037;-76
2021/06/15 02:14:37;;;;;;;2.75;2.17;;;17.10;99.90;;;;;;5034007;28;20029;-76
2021/06/15 02:17:05;;;;;;;4.60;1.85;;;17.00;99.90;;;;;;5034012;28;20030;-76
2021/06/15 02:19:32;;;;;;;4.57;2.45;;;17.10;99.90;;;;;;5033867;28;20079;-76
2021/06/15 02:22:10;;;;;;;5.55;2.35;;;17.20;99.90;;;;;;5033786;28;20033;-77
2021/06/15 02:24:42;;;;;;;3.35;2.28;;;17.30;99.90;;;;;;5033835;28;20591;-76
2021/06/15 02:27:10;;;;;;;6.68;2.28;;;17.30;99.90;;;;;;5032611;28;20029;-76
2021/06/15 02:29:38;;;;;;;3.88;2.10;;;17.10;99.90;;;;;;5032605;28;20033;-76
2021/06/15 02:32:04;;;;;;;5.28;2.30;;;17.10;99.90;;;;;;5032438;28;20116;-76
2021/06/15 02:34:34;;;;;;;4.45;2.10;;;17.30;99.90;;;;;;5032346;28;20029;-76
2021/06/15 02:37:00;;;;;;;5.82;2.50;;;17.20;99.90;;;;;;5032139;28;20056;-76
2021/06/15 02:39:33;;;;;;;4.65;2.22;;;17.00;99.90;;;;;;5033598;28;20030;-76
2021/06/15 02:42:02;;;;;;;4.32;2.33;;;16.90;99.90;;;;;;5032589;28;20030;-76
2021/06/15 02:44:31;;;;;;;5.10;2.40;;;17.20;99.90;;;;;;5032240;28;20026;-76
2021/06/15 02:46:58;;;;;;;6.32;2.00;;;17.20;99.90;;;;;;5033695;28;20096;-76
2021/06/15 02:49:30;;;;;;;9.18;2.05;;;16.80;99.90;;;;;;5031417;28;20124;-76
2021/06/15 02:52:27;;;;;;;5.63;2.30;;;16.70;99.90;;;;;;5033734;28;20104;-76
2021/06/15 02:55:00;;;;;;;4.10;2.38;;;16.80;99.90;;;;;;4980657;28;20081;-76
2021/06/15 02:57:26;;;;;;;3.83;2.40;;;16.50;99.90;;;;;;5033370;28;20032;-76
2021/06/15 02:59:55;;;;;;;7.78;2.78;;;16.60;99.90;;;;;;5033587;28;20068;-76
2021/06/15 03:02:21;;;;;;;4.78;2.35;;;16.70;99.90;;;;;;5031959;28;20075;-76
2021/06/15 03:04:47;;;;;;;3.30;2.15;;;16.60;99.90;;;;;;5033297;28;20108;-76
2021/06/15 03:07:14;;;;;;;9.43;2.63;;;16.90;99.90;;;;;;5031967;28;20049;-76
2021/06/15 03:09:40;;;;;;;7.35;2.40;;;16.80;99.90;;;;;;5031941;28;20022;-76
2021/06/15 03:12:10;;;;;;;6.22;2.47;;;16.80;99.90;;;;;;5033238;28;20104;-76
2021/06/15 03:14:39;;;;;;;5.82;2.33;;;16.70;99.90;;;;;;5033747;28;20053;-76
2021/06/15 03:17:08;;;;;;;5.30;2.30;;;16.80;99.90;;;;;;5031951;28;20133;-76
2021/06/15 03:19:44;;;;;;;6.15;2.10;;;16.80;99.90;;;;;;5033460;28;20029;-76
2021/06/15 03:22:17;;;;;;;3.80;2.38;;;16.70;99.90;;;;;;5033146;28;20452;-76
2021/06/15 03:24:52;;;;;;;3.35;2.15;;;16.50;99.90;;;;;;5031865;28;20029;-76
2021/06/15 03:27:36;;;;;;;5.30;2.50;;;16.60;99.90;;;;;;5033118;28;20048;-76
2021/06/15 03:30:08;;;;;;;4.68;2.13;;;16.80;99.90;;;;;;5033443;28;20044;-76
2021/06/15 03:32:45;;;;;;;4.70;2.30;;;17.00;99.90;;;;;;5033280;28;20038;-76
2021/06/15 03:35:12;;;;;;;4.03;2.60;;;16.80;99.90;;;;;;5033338;28;20026;-76
2021/06/15 03:37:41;;;;;;;3.70;2.38;;;16.80;99.90;;;;;;5032245;28;20030;-76
2021/06/15 03:40:08;;;;;;;6.78;2.40;;;16.70;99.90;;;;;;5033168;28;20056;-76
2021/06/15 03:42:40;;;;;;;5.05;2.25;;;16.70;99.90;;;;;;5032826;28;20112;-76
2021/06/15 03:45:07;;;;;;;4.35;2.10;;;16.60;99.90;;;;;;5032959;28;20026;-76
2021/06/15 03:47:35;;;;;;;3.78;2.47;;;16.50;99.90;;;;;;5032879;28;20159;-76
2021/06/15 03:50:03;;;;;;;6.03;2.35;;;16.50;99.90;;;;;;5015157;28;20076;-76
2021/06/15 03:52:31;;;;;;;3.28;2.20;;;;;;;;;;5032762;28;20025;-76
2021/06/15 03:54:57;;;;;;;6.55;2.50;;;16.40;99.90;;;;;;5031540;28;20029;-76
2021/06/15 03:57:26;;;;;;;6.53;2.33;;;16.70;99.90;;;;;;5031540;28;20032;-76
2021/06/15 03:59:53;;;;;;;5.22;2.65;;;16.80;99.90;;;;;;5033135;28;20033;-76
2021/06/15 04:02:20;;;;;;;6.70;2.65;;;16.80;99.90;;;;;;5036345;28;20473;-76
2021/06/15 04:04:47;;;;;;;5.45;2.42;;;16.70;99.90;;;;;;5036392;28;20028;-76
2021/06/15 04:07:18;;;;;;;5.75;2.20;;;16.40;99.90;;;;;;5036347;28;20075;-76
2021/06/15 04:09:45;;;;;;;4.78;2.58;;;16.30;99.90;;;;;;5036585;28;20523;-76
2021/06/15 04:12:14;;;;;;;5.57;2.53;;;16.20;99.90;;;;;;5036252;28;20083;-76
2021/06/15 04:14:44;;;;;;;3.30;2.35;;;16.30;99.90;;;;;;5034960;28;20026;-76
2021/06/15 04:17:13;;;;;;;4.97;2.35;;;16.30;99.90;;;;;;5034975;28;20393;-76
2021/06/15 04:19:43;;;;;;;5.22;2.63;;;16.30;99.90;;;;;;5034866;28;20100;-76
2021/06/15 04:22:12;;;;;;;6.22;2.50;;;16.30;99.90;;;;;;5034762;28;20051;-76
2021/06/15 04:24:40;;;;;;;5.22;2.53;;;16.50;99.90;;;;;;5034764;28;20121;-76
2021/06/15 04:27:06;;;;;;;5.40;2.33;;;16.60;99.90;;;;;;5034732;28;20389;-76
2021/06/15 04:29:32;;;;;;;7.43;2.28;;;16.60;99.90;;;;;;5034627;28;20428;-76
2021/06/15 04:32:05;;;;;;;4.80;2.45;;;16.50;99.90;;;;;;5035879;28;20021;-76
2021/06/15 04:34:34;;;;;;;3.85;2.72;;;16.70;99.90;;;;;;5035811;28;20036;-77
2021/06/15 04:37:04;;;;;;;4.15;2.75;;;16.40;99.90;;;;;;5034346;28;20045;-76
2021/06/15 04:39:37;;;;;;;5.50;2.67;;;16.20;99.90;;;;;;5035799;28;20025;-76
2021/06/15 04:42:12;;;;;;;3.88;2.22;;;16.10;99.90;;;;;;5035967;28;20026;-76
2021/06/15 04:44:42;;;;;;;5.18;2.83;;;16.50;99.90;;;;;;5034445;28;20045;-76
2021/06/15 04:47:43;;;;;;;7.97;2.60;;;16.90;99.90;;;;;;5035570;28;20100;-76
2021/06/15 04:50:19;;;;;;;8.88;2.92;;;16.70;99.90;;;;;;5034318;28;20037;-76
2021/06/15 04:52:50;;;;;;;3.97;2.58;;;16.60;99.90;;;;;;5035561;28;20036;-76
2021/06/15 04:55:21;;;;;;;4.85;2.20;;;16.80;99.90;;;;;;5034244;28;20056;-76
2021/06/15 04:57:49;;;;;;;5.03;2.58;;;16.40;99.90;;;;;;5034184;28;20082;-76
2021/06/15 05:00:16;;;;;;;3.63;2.40;;;16.20;99.90;;;;;;5035609;28;20038;-76
2021/06/15 05:02:43;;;;;;;6.75;2.67;;;16.40;99.90;;;;;;5033911;28;20393;-76
2021/06/15 05:05:11;;;;;;;4.63;2.50;;;16.70;99.90;;;;;;5035291;28;20025;-76
2021/06/15 05:07:36;;;;;;;4.30;2.40;;;16.90;99.90;;;;;;5035523;28;20022;-76
2021/06/15 05:10:04;;;;;;;4.57;2.85;;;17.00;99.90;;;;;;5035184;28;20033;-76
2021/06/15 05:12:34;;;;;;;4.07;2.83;;;17.00;99.90;;;;;;5033024;28;20484;-76
2021/06/15 05:15:09;;;;;;;5.57;2.65;;;17.00;99.90;;;;;;5033908;28;20531;-76
2021/06/15 05:17:36;;;;;;;5.78;2.72;;;17.10;99.90;;;;;;5033755;28;20029;-76
2021/06/15 05:20:04;;;;;;;6.75;2.80;;;17.10;99.90;;;;;;5035260;28;20041;-76
2021/06/15 05:22:34;;;;;;;4.45;2.55;;;17.00;99.90;;;;;;5034900;28;20021;-76
2021/06/15 05:25:02;;;;;;;6.07;2.70;;;17.20;99.90;;;;;;5033628;28;20021;-76
2021/06/15 05:27:31;;;;;;;3.40;2.58;;;17.30;99.90;;;;;;5035162;28;20060;-76
2021/06/15 05:29:57;;;;;;;3.95;2.58;;;17.30;99.90;;;;;;5035353;28;20072;-76
2021/06/15 05:32:23;;;;;;;5.82;2.30;;;17.20;99.90;;;;;;5033485;28;20373;-76
2021/06/15 05:34:49;;;;;;;5.38;2.40;;;17.30;99.90;;;;;;5033211;28;20032;-77
2021/06/15 05:37:15;;;;;;;6.72;2.83;;;17.60;99.90;;;;;;5033479;28;20033;-76
2021/06/15 05:39:42;;;;;;;6.45;2.78;;;17.60;99.90;;;;;;5034559;28;20030;-77
2021/06/15 05:42:08;;;;;;;7.05;2.70;;;17.50;99.90;;;;;;5033176;28;20116;-76
2021/06/15 05:44:35;;;;;;;8.32;2.72;;;17.60;99.90;;;;;;5033321;28;20495;-76
2021/06/15 05:47:01;;;;;;;6.38;2.90;;;17.70;99.90;;;;;;5033240;28;20025;-76
2021/06/15 05:49:27;;;;;;;8.25;2.83;;;17.80;99.90;;;;;;5034959;28;20021;-76
2021/06/15 05:52:02;;;;;;;8.40;2.85;;;17.80;99.90;;;;;;5034659;28;20030;-76
2021/06/15 05:54:29;;;;;;;7.82;2.58;;;17.90;99.90;;;;;;5033060;28;20029;-76
2021/06/15 05:56:55;;;;;;;5.72;2.75;;;17.90;99.90;;;;;;5033043;28;20036;-76
2021/06/15 05:59:20;;;;;;;5.45;2.50;;;18.00;99.90;;;;;;5034205;28;20104;-76
2021/06/15 06:01:46;;;;;;;8.70;3.30;;;18.00;99.90;;;;;;5032848;28;20029;-76
2021/06/15 06:04:14;;;;;;;4.07;2.60;;;18.10;99.90;;;;;;5032887;28;20501;-76
2021/06/15 06:09:23;;;;;;;6.30;2.67;;;18.30;99.90;;;;;;5034693;28;20087;-76
2021/06/15 06:11:57;;;;;;;7.18;2.75;;;18.40;99.90;;;;;;5032688;28;20485;-77
2021/06/15 06:14:22;;;;;;;5.47;2.80;;;18.40;99.90;;;;;;5034563;28;20032;-79
2021/06/15 06:16:48;;;;;;;7.65;3.15;;;18.50;99.90;;;;;;5032745;28;20108;-77
2021/06/15 06:19:15;;;;;;;4.13;2.60;;;18.70;99.90;;;;;;5032627;28;20492;-76
2021/06/15 06:21:43;;;;;;;6.32;2.70;;;18.90;99.90;;;;;;5032482;28;20025;-76
2021/06/15 06:24:10;;;;;;;7.35;2.70;;;19.00;99.90;;;;;;5033771;28;20017;-77
2021/06/15 06:26:36;;;;;;;6.30;2.65;;;19.10;99.90;;;;;;5032551;28;20024;-76
2021/06/15 06:29:02;;;;;;;4.63;2.53;;;19.20;99.90;;;;;;5032532;28;20052;-77
2021/06/15 06:31:28;;;;;;;10.77;2.40;;;19.30;99.90;;;;;;5034081;28;20377;-76
2021/06/15 06:33:53;;;;;;;4.22;2.65;;;19.40;99.90;;;;;;5032281;28;20060;-76
2021/06/15 06:36:19;;;;;;;7.20;2.40;;;19.50;99.90;;;;;;5033470;28;20037;-76
2021/06/15 06:38:48;;;;;;;10.10;2.67;;;19.60;99.90;;;;;;5032289;28;20374;-76
2021/06/15 06:41:15;;;;;;;7.10;2.67;;;19.70;99.90;;;;;;5033508;28;20017;-76
2021/06/15 06:43:41;;;;;;;7.00;2.50;;;19.80;99.90;;;;;;5033426;28;20499;-76
2021/06/15 06:46:07;;;;;;;7.40;2.20;;;20.00;99.90;;;;;;5032235;28;20025;-76
2021/06/15 06:48:32;;;;;;;4.82;2.30;;;20.10;99.90;;;;;;5032112;28;20022;-76
2021/06/15 06:50:58;;;;;;;5.80;2.55;;;20.30;99.90;;;;;;5033650;28;20048;-76
2021/06/15 06:53:24;;;;;;;6.20;2.47;;;20.40;99.90;;;;;;5032049;28;20084;-77
2021/06/15 06:55:50;;;;;;;5.72;2.63;;;20.50;99.90;;;;;;5031991;28;20025;-77
2021/06/15 06:58:15;;;;;;;5.13;2.13;;;20.50;99.90;;;;;;5032045;28;20025;-77
2021/06/15 07:00:41;;;;;;;7.95;2.75;;;20.60;99.90;;;;;;5033343;28;20022;-77
2021/06/15 07:03:07;;;;;;;10.40;2.70;;;20.80;99.90;;;;;;5033486;28;20041;-76
2021/06/15 07:05:32;;;;;;;4.88;2.35;;;20.90;99.90;;;;;;5033256;28;20021;-77
2021/06/15 07:07:58;;;;;;;12.85;3.10;;;21.00;99.90;;;;;;5033197;28;20022;-77
2021/06/15 07:10:24;;;;;;;6.15;2.08;;;21.10;99.90;;;;;;5031979;28;20057;-77
2021/06/15 07:12:50;;;;;;;7.05;2.17;;;21.20;99.90;;;;;;5031893;28;20076;-77
2021/06/15 07:15:16;;;;;;;7.25;2.95;;;21.30;99.90;;;;;;5031868;28;20029;-77
2021/06/15 07:17:42;;;;;;;6.68;2.70;;;21.40;99.90;;;;;;5033071;28;20029;-77
2021/06/15 07:20:09;;;;;;;5.07;2.20;;;21.60;99.90;;;;;;5033101;28;20033;-77
2021/06/15 07:22:36;;;;;;;5.30;2.33;;;21.70;99.90;;;;;;5031738;28;20473;-77
2021/06/15 07:25:03;;;;;;;3.20;2.08;;;21.80;99.40;;;;;;5033068;28;20025;-77
2021/06/15 07:27:28;;;;;;;4.82;2.67;;;21.90;99.90;;;;;;5031638;28;20021;-77
2021/06/15 07:29:54;;;;;;;8.88;2.03;;;22.00;99.70;;;;;;5033004;28;20029;-77
2021/06/15 07:32:20;;;;;;;10.10;2.17;;;22.10;99.80;;;;;;5031693;28;20060;-77
2021/06/15 07:34:46;;;;;;;6.30;2.00;;;22.30;98.60;;;;;;5032981;28;20061;-77
2021/06/15 07:37:11;;;;;;;7.65;2.30;;;22.40;98.70;;;;;;5037015;28;20476;-77
2021/06/15 07:39:37;;;;;;;8.93;2.28;;;22.50;98.10;;;;;;5036901;28;20519;-76
2021/06/15 07:42:04;;;;;;;5.53;2.13;;;22.60;97.00;;;;;;5035429;28;20041;-77
2021/06/15 07:44:29;;;;;;;3.50;1.90;;;22.70;97.00;;;;;;5035588;28;20418;-77
2021/06/15 07:46:55;;;;;;;7.43;1.67;;;22.80;97.00;;;;;;5036715;28;20060;-77
2021/06/15 07:49:22;;;;;;;5.43;2.30;;;23.00;96.50;;;;;;5035460;28;20385;-77
2021/06/15 07:51:48;;;;;;;9.90;2.28;;;23.00;95.80;;;;;;5036670;28;20029;-77
2021/06/15 07:54:14;;;;;;;5.55;1.90;;;23.20;96.30;;;;;;5035377;28;20029;-77
2021/06/15 07:56:40;;;;;;;4.47;1.73;;;23.30;94.60;;;;;;5035304;28;20385;-77
2021/06/15 07:59:05;;;;;;;7.35;1.83;;;23.40;94.20;;;;;;5035205;28;20032;-77
2021/06/15 08:01:31;;;;;;;5.53;2.15;;;23.30;93.50;;;;;;5036404;28;20033;-76
2021/06/15 08:03:57;;;;;;;7.10;2.00;;;23.40;93.50;;;;;;5036463;28;20060;-77
2021/06/15 08:06:23;;;;;;;4.55;1.73;;;23.50;93.30;;;;;;5035132;28;20116;-76
2021/06/15 08:08:49;;;;;;;7.28;2.05;;;23.70;93.10;;;;;;5036442;28;20525;-76
2021/06/15 08:11:15;;;;;;;7.30;1.95;;;23.90;93.00;;;;;;5036295;28;20026;-77
2021/06/15 08:13:40;;;;;;;3.83;1.70;;;24.00;93.40;;;;;;5036238;28;20029;-77
2021/06/15 08:16:06;;;;;;;10.65;2.10;;;24.10;93.20;;;;;;5034914;28;20029;-76
2021/06/15 08:18:32;;;;;;;5.93;1.90;;;24.20;93.30;;;;;;5034840;28;20036;-77
2021/06/15 08:20:58;;;;;;;4.68;1.80;;;24.20;93.30;;;;;;5034828;28;20117;-76
2021/06/15 08:23:25;;;;;;;6.03;2.00;;;24.20;91.00;;;;;;5034757;28;20025;-76
2021/06/15 08:25:51;;;;;;;3.75;1.90;;;24.30;92.30;;;;;;5036038;28;20535;-77
2021/06/15 08:28:17;;;;;;;3.13;1.67;;;24.50;93.00;;;;;;5034688;28;20022;-77
2021/06/15 08:30:43;;;;;;;6.53;1.90;;;24.50;92.90;;;;;;5034666;28;20017;-76
2021/06/15 08:33:09;;;;;;;5.28;1.95;;;24.60;92.90;;;;;;5034595;28;20397;-77
2021/06/15 08:35:35;;;;;;;3.45;1.67;;;24.80;92.00;;;;;;5034358;28;20046;-76
2021/06/15 08:38:01;;;;;;;4.10;1.77;;;24.80;91.70;;;;;;5034553;28;20473;-77
2021/06/15 08:40:28;;;;;;;4.97;1.90;;;24.90;91.60;;;;;;5034466;28;20036;-77
2021/06/15 08:42:54;;;;;;;8.02;1.83;;;24.90;89.80;;;;;;5035639;28;20030;-77
2021/06/15 08:45:19;;;;;;;4.30;1.45;;;25.00;89.60;;;;;;5034379;28;20425;-77
2021/06/15 08:47:48;;;;;;;9.25;1.75;;;25.10;90.90;;;;;;5033409;28;20021;-77
2021/06/15 08:50:18;;;;;;;6.47;2.10;;;25.40;88.30;;;;;;5035588;28;20018;-76
2021/06/15 08:52:45;;;;;;;4.30;1.67;;;25.40;86.60;;;;;;5034262;28;20064;-76
2021/06/15 08:55:12;;;;;;;3.22;1.65;;;25.40;88.10;;;;;;5035431;28;20064;-77
2021/06/15 08:57:39;;;;;;;3.30;1.80;;;25.40;88.60;;;;;;5033936;28;20033;-77
2021/06/15 09:00:08;;;;;;;5.53;1.73;;;25.50;86.30;;;;;;5034284;28;20160;-77
2021/06/15 09:02:47;;;;;;;4.18;2.15;;;25.60;84.60;;;;;;5033977;28;20515;-77
2021/06/15 09:05:19;;;;;;;4.32;1.45;;;25.70;86.60;;;;;;5033957;28;20079;-77
2021/06/15 09:07:57;;;;;;;12.15;2.10;;;26.10;86.60;;;;;;5034026;28;20481;-77
2021/06/15 09:10:27;;;;;;;12.27;1.85;;;26.30;85.60;;;;;;5035419;28;20022;-77
2021/06/15 09:12:53;;;;;;;7.07;1.80;;;26.30;85.00;;;;;;5033856;28;20029;-77
2021/06/15 09:15:21;;;;;;;5.10;1.60;;;26.40;84.70;;;;;;5033801;28;20025;-77
2021/06/15 09:17:47;;;;;;;6.50;1.85;;;26.30;86.00;;;;;;5033799;28;20512;-77
2021/06/15 09:20:19;;;;;;;6.57;1.95;;;26.50;85.70;;;;;;5033767;28;20068;-77
2021/06/15 09:22:45;;;;;;;6.85;1.90;;;26.70;86.60;;;;;;5034886;28;20025;-78
2021/06/15 09:25:13;;;;;;;5.10;2.15;;;26.60;84.60;;;;;;5033842;28;20025;-77
2021/06/15 09:27:40;;;;;;;5.90;1.70;;;26.70;85.30;;;;;;5034816;28;20018;-77
2021/06/15 09:30:13;;;;;;;4.28;1.98;;;27.00;84.90;;;;;;5033558;28;20066;-77
2021/06/15 09:32:41;;;;;;;4.55;1.90;;;26.70;86.10;;;;;;5034685;28;20025;-76
2021/06/15 09:35:08;;;;;;;4.00;1.80;;;26.80;87.50;;;;;;5034494;28;20041;-77
2021/06/15 09:37:34;;;;;;;7.70;2.38;;;26.70;86.90;;;;;;5033400;28;20087;-77
2021/06/15 09:40:02;;;;;;;7.15;1.90;;;26.50;87.80;;;;;;5033311;28;20431;-77
2021/06/15 09:42:29;;;;;;;9.13;1.95;;;26.90;87.80;;;;;;5034464;28;20493;-77
2021/06/15 09:44:54;;;;;;;6.63;2.17;;;27.30;90.20;;;;;;5033319;28;20022;-77
2021/06/15 09:47:24;;;;;;;10.15;2.53;;;27.40;88.00;;;;;;5034751;28;20072;-77
2021/06/15 09:49:50;;;;;;;9.95;2.53;;;27.40;89.20;;;;;;5034722;28;20017;-77
2021/06/15 09:52:23;;;;;;;16.67;2.53;;;27.50;88.10;;;;;;5034661;28;20021;-77
2021/06/15 09:54:54;;;;;;;12.93;2.97;;;27.30;87.40;;;;;;5034411;28;20104;-77
2021/06/15 09:57:34;;;;;;;12.30;2.45;;;27.40;88.00;;;;;;5034306;28;20025;-77
2021/06/15 10:00:10;;;;;;;12.50;2.78;;;27.50;88.30;;;;;;5034548;28;20033;-77
2021/06/15 10:02:59;;;;;;;10.85;2.33;;;27.70;85.90;;;;;;5034441;28;20465;-77
2021/06/15 10:05:27;;;;;;;9.88;2.47;;;27.80;85.60;;;;;;5034502;28;20026;-77
2021/06/15 10:07:54;;;;;;;7.68;2.60;;;27.60;84.40;;;;;;5032841;28;20500;-77
2021/06/15 10:10:22;;;;;;;7.28;2.65;;;27.70;85.40;;;;;;5032786;28;20035;-77
2021/06/15 10:12:49;;;;;;;6.68;2.47;;;27.80;85.60;;;;;;5032705;28;20025;-77
2021/06/15 10:15:15;;;;;;;8.20;2.65;;;27.80;84.80;;;;;;5033992;28;20026;-77
2021/06/15 10:17:46;;;;;;;10.57;2.95;;;27.90;85.20;;;;;;5032693;28;20120;-77
2021/06/15 10:20:15;;;;;;;7.38;2.15;;;27.90;84.10;;;;;;5032645;28;20021;-77
2021/06/15 10:22:42;;;;;;;13.20;2.55;;;27.90;84.10;;;;;;5033807;28;20499;-77
2021/06/15 10:25:09;;;;;;;8.65;2.00;;;27.90;84.30;;;;;;5032539;28;20025;-77
2021/06/15 10:27:35;;;;;;;10.30;2.25;;;28.00;83.70;;;;;;5032493;28;20508;-77
2021/06/15 10:30:01;;;;;;;13.45;2.58;;;28.10;83.10;;;;;;5032401;28;20022;-77
2021/06/15 10:32:27;;;;;;;6.10;1.90;;;28.50;82.00;;;;;;5032421;28;20025;-77
2021/06/15 10:35:02;;;;;;;10.80;2.40;;;28.50;82.60;;;;;;5033256;28;20030;-77
2021/06/15 10:37:31;;;;;;;6.25;2.05;;;28.80;81.30;;;;;;5033653;28;20473;-77
2021/06/15 10:40:00;;;;;;;10.13;2.20;;;28.80;79.60;;;;;;5033854;28;20502;-77
2021/06/15 10:42:26;;;;;;;9.38;2.30;;;28.70;79.10;;;;;;5033524;28;20022;-77
2021/06/15 10:45:13;;;;;;;4.68;2.05;;;28.70;78.50;;;;;;5033517;28;20048;-77
2021/06/15 10:48:04;;;;;;;3.53;2.05;;;28.90;80.00;;;;;;5033475;28;20096;-77
2021/06/15 10:50:42;;;;;;;5.60;2.28;;;29.00;78.80;;;;;;5032154;28;20365;-77
2021/06/15 10:53:10;;;;;;;8.20;2.08;;;29.30;79.40;;;;;;5033243;28;20033;-77
2021/06/15 10:55:45;;;;;;;6.57;2.00;;;29.70;78.10;;;;;;5032138;28;20048;-78
2021/06/15 10:58:11;;;;;;;5.05;2.08;;;29.70;76.00;;;;;;5033587;28;20018;-78
2021/06/15 11:00:44;;;;;;;11.73;2.30;;;29.60;75.60;;;;;;5031957;28;20120;-78
2021/06/15 11:03:16;;;;;;;5.50;2.10;;;29.70;75.50;;;;;;5032201;28;20075;-78
2021/06/15 11:05:56;;;;;;;5.35;1.98;;;29.80;75.90;;;;;;5032011;28;20025;-78
2021/06/15 11:08:28;;;;;;;8.52;1.98;;;30.10;75.50;;;;;;5032043;28;20018;-78
2021/06/15 11:11:15;;;;;;;11.38;2.55;;;30.40;72.40;;;;;;5032508;28;20013;-77
2021/06/15 11:13:44;;;;;;;7.40;1.90;;;30.00;71.10;;;;;;5031775;28;20029;-80
2021/06/15 11:16:40;;;;;;;11.43;1.95;;;30.40;72.10;;;;;;5033183;28;20558;-78
2021/06/15 11:19:12;;;;;;;8.13;2.10;;;29.90;70.90;;;;;;5033355;28;20021;-77
2021/06/15 11:21:44;;;;;;;4.80;1.77;;;30.40;71.70;;;;;;5031852;28;20029;-78
2021/06/15 11:24:29;;;;;;;6.30;1.77;;;;;;;;;;5031947;28;20029;-78
2021/06/15 11:27:27;;;;;;;8.23;1.92;;;31.30;69.40;;;;;;5033349;28;20025;-78
2021/06/15 11:29:59;;;;;;;4.43;1.90;;;30.90;67.70;;;;;;5010755;28;20030;-78
2021/06/15 11:32:36;;;;;;;5.28;1.80;;;30.60;68.90;;;;;;5033371;28;20094;-78
2021/06/15 11:35:03;;;;;;;4.90;1.88;;;31.00;68.90;;;;;;5031574;28;20045;-78
2021/06/15 11:37:41;;;;;;;5.68;1.80;;;31.00;67.50;;;;;;5031697;28;20080;-78
2021/06/15 11:40:29;;;;;;;6.03;1.75;;;31.10;69.60;;;;;;5032998;28;20037;-78
2021/06/15 11:43:08;;;;;;;8.70;1.90;;;31.50;67.80;;;;;;5031633;28;20443;-78
2021/06/15 11:45:40;;;;;;;7.32;1.80;;;31.80;65.70;;;;;;5031727;28;20453;-78
2021/06/15 11:48:14;;;;;;;4.03;1.85;;;31.80;65.60;;;;;;5031713;28;20075;-77
2021/06/15 11:50:44;;;;;;;5.35;1.95;;;31.50;64.80;;;;;;5031578;28;20025;-78
2021/06/15 11:53:13;;;;;;;9.13;2.03;;;31.40;65.70;;;;;;5031556;28;20030;-78
2021/06/15 11:55:40;;;;;;;6.07;1.90;;;31.70;66.30;;;;;;5031548;28;20029;-78
2021/06/15 11:58:07;;;;;;;8.43;1.98;;;31.60;64.30;;;;;;5033079;28;20025;-78
2021/06/15 12:00:54;;;;;;;6.20;1.98;;;32.10;64.90;;;;;;5031539;28;20079;-78
2021/06/15 12:03:25;;;;;;;3.97;1.70;;;31.70;62.80;;;;;;5031416;28;20026;-78
2021/06/15 12:05:58;;;;;;;3.80;1.55;;;31.60;63.90;;;;;;5031556;28;20476;-78
2021/06/15 12:08:35;;;;;;;4.50;1.53;;;31.60;65.80;;;;;;5031510;28;20071;-78
2021/06/15 12:11:02;;;;;;;3.92;1.80;;;31.70;64.40;;;;;;5033026;28;20021;-78
2021/06/15 12:13:29;;;;;;;8.02;1.80;;;31.70;60.90;;;;;;5031393;28;20025;-78
2021/06/15 12:16:11;;;;;;;6.10;1.98;;;32.50;61.20;;;;;;5032935;28;20473;-78
2021/06/15 12:18:48;;;;;;;10.70;1.90;;;32.90;62.70;;;;;;5032681;28;20095;-78
2021/06/15 12:21:16;;;;;;;5.70;1.23;;;32.80;63.20;;;;;;5033847;28;20056;-78
2021/06/15 12:23:43;;;;;;;4.95;1.92;;;32.80;61.80;;;;;;5036607;28;20446;-78
2021/06/15 12:26:20;;;;;;;5.95;1.60;;;32.70;61.40;;;;;;5036103;28;20013;-79
2021/06/15 12:29:07;;;;;;;4.03;1.38;;;33.50;62.00;;;;;;5034819;28;20121;-78
2021/06/15 12:31:37;;;;;;;3.72;1.50;;;34.30;59.50;;;;;;5036026;28;20490;-79
2021/06/15 12:34:05;;;;;;;5.72;1.70;;;34.20;59.30;;;;;;5034759;28;20116;-79
2021/06/15 12:36:34;;;;;;;7.70;1.80;;;33.30;59.80;;;;;;5035673;28;20045;-78
2021/06/15 12:39:22;;;;;;;7.80;1.70;;;33.50;59.30;;;;;;5034514;28;20025;-78
2021/06/15 12:41:52;;;;;;;8.20;1.58;;;33.80;58.50;;;;;;5035778;28;20025;-78
2021/06/15 12:44:24;;;;;;;7.03;1.63;;;33.60;58.40;;;;;;5035792;28;20514;-78
2021/06/15 12:47:10;;;;;;;7.00;1.90;;;33.70;57.50;;;;;;5035760;28;20017;-78
2021/06/15 12:49:37;;;;;;;3.25;1.60;;;32.70;59.00;;;;;;5036277;28;20021;-78
2021/06/15 12:52:12;;;;;;;3.83;1.20;;;33.00;58.90;;;;;;5035939;28;20060;-78
2021/06/15 12:54:42;;;;;;;3.60;1.33;;;33.50;58.00;;;;;;5034397;28;20416;-79
2021/06/15 12:57:22;;;;;;;7.97;1.60;;;33.50;57.80;;;;;;5035849;28;20025;-78
2021/06/15 13:00:06;;;;;;;3.53;1.30;;;33.70;57.20;;;;;;5034243;28;20091;-79
2021/06/15 13:02:32;;;;;;;6.13;1.77;;;33.60;56.50;;;;;;5035383;28;20435;-78